sensor_id;sensor_type;location;lat;lon;timestamp;P1;durP1;ratioP1;P2;durP2;ratioP2
17382;SDS011;8809;51.892;8.384;2022-12-10T00:01:20;38.45;;;22.83;;
17382;SDS011;8809;51.892;8.384;2022-12-10T00:03:48;41.15;;;24.35;;
17382;SDS011;8809;51.892;8.384;2022-12-10T00:06:17;39.35;;;23.85;;
17382;SDS011;8809;51.892;8.384;2022-12-10T00:08:46;37.67;;;23.20;;
17382;SDS011;8809;51.892;8.384;2022-12-10T00:11:14;37.88;;;22.73;;
17382;SDS011;8809;51.892;8.384;2022-12-10T00:13:44;34.22;;;21.67;;
17382;SDS011;8809;51.892;8.384;2022-12-10T00:16:13;35.95;;;23.00;;
17382;SDS011;8809;51.892;8.384;2022-12-10T00:18:41;36.78;;;21.55;;
17382;SDS011;8809;51.892;8.384;2022-12-10T00:21:09;36.00;;;22.33;;
17382;SDS011;8809;51.892;8.384;2022-12-10T00:23:37;37.28;;;22.98;;
17382;SDS011;8809;51.892;8.384;2022-12-10T00:26:05;34.17;;;20.63;;
17382;SDS011;8809;51.892;8.384;2022-12-10T00:28:33;36.55;;;21.83;;
17382;SDS011;8809;51.892;8.384;2022-12-10T00:31:06;31.70;;;20.80;;
17382;SDS011;8809;51.892;8.384;2022-12-10T00:33:34;35.88;;;20.35;;
17382;SDS011;8809;51.892;8.384;2022-12-10T00:36:02;34.67;;;21.13;;
17382;SDS011;8809;51.892;8.384;2022-12-10T00:38:30;32.17;;;20.30;;
17382;SDS011;8809;51.892;8.384;2022-12-10T00:40:57;36.08;;;20.98;;
17382;SDS011;8809;51.892;8.384;2022-12-10T00:43:24;35.50;;;22.35;;
17382;SDS011;8809;51.892;8.384;2022-12-10T00:45:52;37.92;;;21.90;;
17382;SDS011;8809;51.892;8.384;2022-12-10T00:48:21;35.25;;;21.02;;
17382;SDS011;8809;51.892;8.384;2022-12-10T00:50:54;36.88;;;20.33;;
17382;SDS011;8809;51.892;8.384;2022-12-10T00:53:22;32.30;;;19.45;;
17382;SDS011;8809;51.892;8.384;2022-12-10T00:55:49;35.58;;;21.08;;
17382;SDS011;8809;51.892;8.384;2022-12-10T00:58:16;32.20;;;19.63;;
17382;SDS011;8809;51.892;8.384;2022-12-10T01:00:44;32.03;;;20.58;;
17382;SDS011;8809;51.892;8.384;2022-12-10T01:03:10;32.97;;;19.63;;
17382;SDS011;8809;51.892;8.384;2022-12-10T01:05:41;34.10;;;19.20;;
17382;SDS011;8809;51.892;8.384;2022-12-10T01:08:08;33.42;;;18.20;;
17382;SDS011;8809;51.892;8.384;2022-12-10T01:10:35;30.23;;;18.13;;
17382;SDS011;8809;51.892;8.384;2022-12-10T01:13:02;28.75;;;16.50;;
17382;SDS011;8809;51.892;8.384;2022-12-10T01:15:30;29.38;;;17.40;;
17382;SDS011;8809;51.892;8.384;2022-12-10T01:17:57;31.80;;;18.23;;
17382;SDS011;8809;51.892;8.384;2022-12-10T01:20:24;29.38;;;17.98;;
17382;SDS011;8809;51.892;8.384;2022-12-10T01:22:52;26.92;;;17.13;;
17382;SDS011;8809;51.892;8.384;2022-12-10T01:25:19;25.55;;;16.45;;
17382;SDS011;8809;51.892;8.384;2022-12-10T01:27:45;27.77;;;16.25;;
17382;SDS011;8809;51.892;8.384;2022-12-10T01:30:16;25.30;;;15.75;;
17382;SDS011;8809;51.892;8.384;2022-12-10T01:32:42;27.63;;;16.75;;
17382;SDS011;8809;51.892;8.384;2022-12-10T01:35:09;27.60;;;17.50;;
17382;SDS011;8809;51.892;8.384;2022-12-10T01:37:36;31.02;;;17.27;;
17382;SDS011;8809;51.892;8.384;2022-12-10T01:40:08;27.55;;;16.85;;
17382;SDS011;8809;51.892;8.384;2022-12-10T01:42:35;30.25;;;17.55;;
17382;SDS011;8809;51.892;8.384;2022-12-10T01:45:05;27.60;;;16.83;;
17382;SDS011;8809;51.892;8.384;2022-12-10T01:47:35;27.38;;;15.98;;
17382;SDS011;8809;51.892;8.384;2022-12-10T01:50:02;27.17;;;16.70;;
17382;SDS011;8809;51.892;8.384;2022-12-10T01:52:32;26.30;;;16.80;;
17382;SDS011;8809;51.892;8.384;2022-12-10T01:54:59;24.60;;;16.15;;
17382;SDS011;8809;51.892;8.384;2022-12-10T01:57:30;25.25;;;16.65;;
17382;SDS011;8809;51.892;8.384;2022-12-10T01:59:58;27.70;;;16.58;;
17382;SDS011;8809;51.892;8.384;2022-12-10T02:02:30;27.17;;;16.08;;
17382;SDS011;8809;51.892;8.384;2022-12-10T02:05:11;27.48;;;16.02;;
17382;SDS011;8809;51.892;8.384;2022-12-10T02:07:51;27.50;;;16.77;;
17382;SDS011;8809;51.892;8.384;2022-12-10T02:10:32;27.88;;;16.17;;
17382;SDS011;8809;51.892;8.384;2022-12-10T02:13:10;24.90;;;16.35;;
17382;SDS011;8809;51.892;8.384;2022-12-10T02:15:41;24.95;;;15.10;;
17382;SDS011;8809;51.892;8.384;2022-12-10T02:18:14;27.65;;;15.43;;
17382;SDS011;8809;51.892;8.384;2022-12-10T02:20:47;26.17;;;16.77;;
17382;SDS011;8809;51.892;8.384;2022-12-10T02:23:17;23.95;;;15.18;;
17382;SDS011;8809;51.892;8.384;2022-12-10T02:25:49;30.05;;;16.75;;
17382;SDS011;8809;51.892;8.384;2022-12-10T02:28:25;28.92;;;17.40;;
17382;SDS011;8809;51.892;8.384;2022-12-10T02:31:02;27.05;;;17.08;;
17382;SDS011;8809;51.892;8.384;2022-12-10T02:33:31;23.40;;;14.70;;
17382;SDS011;8809;51.892;8.384;2022-12-10T02:36:02;29.80;;;16.48;;
17382;SDS011;8809;51.892;8.384;2022-12-10T02:38:31;31.52;;;17.48;;
17382;SDS011;8809;51.892;8.384;2022-12-10T02:41:02;26.70;;;16.63;;
17382;SDS011;8809;51.892;8.384;2022-12-10T02:43:33;29.15;;;18.48;;
17382;SDS011;8809;51.892;8.384;2022-12-10T02:46:02;27.58;;;17.38;;
17382;SDS011;8809;51.892;8.384;2022-12-10T02:48:31;25.05;;;14.77;;
17382;SDS011;8809;51.892;8.384;2022-12-10T02:50:59;27.15;;;16.13;;
17382;SDS011;8809;51.892;8.384;2022-12-10T02:53:26;23.25;;;15.50;;
17382;SDS011;8809;51.892;8.384;2022-12-10T02:55:55;27.15;;;18.17;;
17382;SDS011;8809;51.892;8.384;2022-12-10T02:58:31;31.77;;;18.70;;
17382;SDS011;8809;51.892;8.384;2022-12-10T03:01:12;33.42;;;17.73;;
17382;SDS011;8809;51.892;8.384;2022-12-10T03:03:47;27.05;;;15.95;;
17382;SDS011;8809;51.892;8.384;2022-12-10T03:06:19;24.92;;;15.13;;
17382;SDS011;8809;51.892;8.384;2022-12-10T03:08:56;23.42;;;14.48;;
17382;SDS011;8809;51.892;8.384;2022-12-10T03:11:27;22.85;;;14.05;;
17382;SDS011;8809;51.892;8.384;2022-12-10T03:13:56;21.80;;;13.82;;
17382;SDS011;8809;51.892;8.384;2022-12-10T03:16:29;24.80;;;15.25;;
17382;SDS011;8809;51.892;8.384;2022-12-10T03:19:02;26.80;;;15.95;;
17382;SDS011;8809;51.892;8.384;2022-12-10T03:21:32;30.15;;;16.65;;
17382;SDS011;8809;51.892;8.384;2022-12-10T03:24:03;25.00;;;16.30;;
17382;SDS011;8809;51.892;8.384;2022-12-10T03:26:30;27.20;;;16.70;;
17382;SDS011;8809;51.892;8.384;2022-12-10T03:29:00;26.60;;;16.63;;
17382;SDS011;8809;51.892;8.384;2022-12-10T03:31:34;28.25;;;17.10;;
17382;SDS011;8809;51.892;8.384;2022-12-10T03:34:02;28.08;;;16.80;;
17382;SDS011;8809;51.892;8.384;2022-12-10T03:36:31;27.52;;;17.42;;
17382;SDS011;8809;51.892;8.384;2022-12-10T03:38:59;25.95;;;15.63;;
17382;SDS011;8809;51.892;8.384;2022-12-10T03:41:27;26.52;;;15.98;;
17382;SDS011;8809;51.892;8.384;2022-12-10T03:43:55;24.17;;;15.32;;
17382;SDS011;8809;51.892;8.384;2022-12-10T03:46:23;25.95;;;15.95;;
17382;SDS011;8809;51.892;8.384;2022-12-10T03:48:52;22.45;;;14.52;;
17382;SDS011;8809;51.892;8.384;2022-12-10T03:51:20;29.58;;;17.00;;
17382;SDS011;8809;51.892;8.384;2022-12-10T03:53:47;28.00;;;18.88;;
17382;SDS011;8809;51.892;8.384;2022-12-10T03:56:15;38.20;;;22.75;;
17382;SDS011;8809;51.892;8.384;2022-12-10T03:58:42;37.65;;;23.65;;
17382;SDS011;8809;51.892;8.384;2022-12-10T04:01:09;47.65;;;29.08;;
17382;SDS011;8809;51.892;8.384;2022-12-10T04:03:36;42.03;;;22.65;;
17382;SDS011;8809;51.892;8.384;2022-12-10T04:06:06;35.65;;;20.83;;
17382;SDS011;8809;51.892;8.384;2022-12-10T04:08:35;34.78;;;20.98;;
17382;SDS011;8809;51.892;8.384;2022-12-10T04:11:02;35.33;;;19.63;;
17382;SDS011;8809;51.892;8.384;2022-12-10T04:13:31;45.55;;;26.75;;
17382;SDS011;8809;51.892;8.384;2022-12-10T04:16:16;41.60;;;25.20;;
17382;SDS011;8809;51.892;8.384;2022-12-10T04:18:56;37.78;;;21.48;;
17382;SDS011;8809;51.892;8.384;2022-12-10T04:21:26;37.65;;;23.65;;
17382;SDS011;8809;51.892;8.384;2022-12-10T04:24:12;44.28;;;25.23;;
17382;SDS011;8809;51.892;8.384;2022-12-10T04:26:58;39.47;;;22.27;;
17382;SDS011;8809;51.892;8.384;2022-12-10T04:29:28;36.53;;;20.77;;
17382;SDS011;8809;51.892;8.384;2022-12-10T04:31:56;42.53;;;25.95;;
17382;SDS011;8809;51.892;8.384;2022-12-10T04:34:23;34.25;;;21.95;;
17382;SDS011;8809;51.892;8.384;2022-12-10T04:36:52;37.17;;;21.65;;
17382;SDS011;8809;51.892;8.384;2022-12-10T04:39:19;32.47;;;19.35;;
17382;SDS011;8809;51.892;8.384;2022-12-10T04:41:47;30.80;;;19.75;;
17382;SDS011;8809;51.892;8.384;2022-12-10T04:44:15;34.38;;;22.02;;
17382;SDS011;8809;51.892;8.384;2022-12-10T04:46:42;41.95;;;24.95;;
17382;SDS011;8809;51.892;8.384;2022-12-10T04:49:09;36.90;;;22.10;;
17382;SDS011;8809;51.892;8.384;2022-12-10T04:51:36;32.85;;;20.10;;
17382;SDS011;8809;51.892;8.384;2022-12-10T04:54:05;38.05;;;22.95;;
17382;SDS011;8809;51.892;8.384;2022-12-10T04:56:32;32.70;;;20.48;;
17382;SDS011;8809;51.892;8.384;2022-12-10T04:59:00;39.20;;;22.17;;
17382;SDS011;8809;51.892;8.384;2022-12-10T05:01:27;36.50;;;22.02;;
17382;SDS011;8809;51.892;8.384;2022-12-10T05:03:54;34.83;;;22.60;;
17382;SDS011;8809;51.892;8.384;2022-12-10T05:06:24;36.53;;;21.60;;
17382;SDS011;8809;51.892;8.384;2022-12-10T05:08:50;32.83;;;19.92;;
17382;SDS011;8809;51.892;8.384;2022-12-10T05:11:19;29.88;;;17.48;;
17382;SDS011;8809;51.892;8.384;2022-12-10T05:13:47;32.38;;;19.65;;
17382;SDS011;8809;51.892;8.384;2022-12-10T05:16:15;30.38;;;18.25;;
17382;SDS011;8809;51.892;8.384;2022-12-10T05:18:44;26.98;;;16.75;;
17382;SDS011;8809;51.892;8.384;2022-12-10T05:21:12;28.15;;;16.85;;
17382;SDS011;8809;51.892;8.384;2022-12-10T05:23:41;31.67;;;18.75;;
17382;SDS011;8809;51.892;8.384;2022-12-10T05:26:09;28.85;;;17.80;;
17382;SDS011;8809;51.892;8.384;2022-12-10T05:28:41;36.63;;;21.30;;
17382;SDS011;8809;51.892;8.384;2022-12-10T05:31:11;36.38;;;22.52;;
17382;SDS011;8809;51.892;8.384;2022-12-10T05:33:39;44.00;;;25.73;;
17382;SDS011;8809;51.892;8.384;2022-12-10T05:36:06;43.60;;;26.30;;
17382;SDS011;8809;51.892;8.384;2022-12-10T05:38:35;44.92;;;25.55;;
17382;SDS011;8809;51.892;8.384;2022-12-10T05:41:02;39.63;;;23.08;;
17382;SDS011;8809;51.892;8.384;2022-12-10T05:43:30;36.05;;;21.23;;
17382;SDS011;8809;51.892;8.384;2022-12-10T05:46:00;33.25;;;19.52;;
17382;SDS011;8809;51.892;8.384;2022-12-10T05:48:28;28.63;;;18.42;;
17382;SDS011;8809;51.892;8.384;2022-12-10T05:50:55;28.38;;;17.55;;
17382;SDS011;8809;51.892;8.384;2022-12-10T05:53:23;42.75;;;25.80;;
17382;SDS011;8809;51.892;8.384;2022-12-10T05:55:58;39.08;;;23.17;;
17382;SDS011;8809;51.892;8.384;2022-12-10T05:58:26;36.30;;;22.15;;
17382;SDS011;8809;51.892;8.384;2022-12-10T06:00:53;33.00;;;19.55;;
17382;SDS011;8809;51.892;8.384;2022-12-10T06:03:22;32.97;;;19.50;;
17382;SDS011;8809;51.892;8.384;2022-12-10T06:05:49;30.13;;;17.67;;
17382;SDS011;8809;51.892;8.384;2022-12-10T06:08:16;34.95;;;20.13;;
17382;SDS011;8809;51.892;8.384;2022-12-10T06:10:43;34.50;;;21.20;;
17382;SDS011;8809;51.892;8.384;2022-12-10T06:13:10;30.50;;;17.88;;
17382;SDS011;8809;51.892;8.384;2022-12-10T06:15:38;31.52;;;18.05;;
17382;SDS011;8809;51.892;8.384;2022-12-10T06:18:06;26.45;;;16.20;;
17382;SDS011;8809;51.892;8.384;2022-12-10T06:20:36;29.25;;;17.20;;
17382;SDS011;8809;51.892;8.384;2022-12-10T06:23:04;26.38;;;16.05;;
17382;SDS011;8809;51.892;8.384;2022-12-10T06:25:32;26.42;;;15.70;;
17382;SDS011;8809;51.892;8.384;2022-12-10T06:27:59;29.48;;;16.98;;
17382;SDS011;8809;51.892;8.384;2022-12-10T06:30:26;36.35;;;19.92;;
17382;SDS011;8809;51.892;8.384;2022-12-10T06:32:53;37.85;;;23.15;;
17382;SDS011;8809;51.892;8.384;2022-12-10T06:35:19;38.83;;;24.60;;
17382;SDS011;8809;51.892;8.384;2022-12-10T06:37:48;33.45;;;20.88;;
17382;SDS011;8809;51.892;8.384;2022-12-10T06:40:15;33.35;;;19.17;;
17382;SDS011;8809;51.892;8.384;2022-12-10T06:42:43;30.25;;;18.02;;
17382;SDS011;8809;51.892;8.384;2022-12-10T06:45:10;27.95;;;17.58;;
17382;SDS011;8809;51.892;8.384;2022-12-10T06:47:37;27.33;;;16.92;;
17382;SDS011;8809;51.892;8.384;2022-12-10T06:50:07;27.58;;;16.55;;
17382;SDS011;8809;51.892;8.384;2022-12-10T06:52:34;25.83;;;15.75;;
17382;SDS011;8809;51.892;8.384;2022-12-10T06:55:03;26.88;;;15.65;;
17382;SDS011;8809;51.892;8.384;2022-12-10T06:57:31;25.30;;;15.82;;
17382;SDS011;8809;51.892;8.384;2022-12-10T06:59:58;23.73;;;14.50;;
17382;SDS011;8809;51.892;8.384;2022-12-10T07:02:24;23.13;;;13.75;;
17382;SDS011;8809;51.892;8.384;2022-12-10T07:04:51;28.38;;;16.08;;
17382;SDS011;8809;51.892;8.384;2022-12-10T07:07:21;29.65;;;17.45;;
17382;SDS011;8809;51.892;8.384;2022-12-10T07:09:48;32.38;;;20.17;;
17382;SDS011;8809;51.892;8.384;2022-12-10T07:12:16;27.20;;;16.90;;
17382;SDS011;8809;51.892;8.384;2022-12-10T07:14:43;28.40;;;17.13;;
17382;SDS011;8809;51.892;8.384;2022-12-10T07:17:10;27.30;;;16.40;;
17382;SDS011;8809;51.892;8.384;2022-12-10T07:19:37;27.88;;;16.05;;
17382;SDS011;8809;51.892;8.384;2022-12-10T07:22:04;27.38;;;17.35;;
17382;SDS011;8809;51.892;8.384;2022-12-10T07:24:31;29.52;;;19.08;;
17382;SDS011;8809;51.892;8.384;2022-12-10T07:26:58;26.17;;;17.38;;
17382;SDS011;8809;51.892;8.384;2022-12-10T07:29:27;26.90;;;17.75;;
17382;SDS011;8809;51.892;8.384;2022-12-10T07:31:54;27.83;;;16.67;;
17382;SDS011;8809;51.892;8.384;2022-12-10T07:34:21;28.63;;;16.92;;
17382;SDS011;8809;51.892;8.384;2022-12-10T07:36:48;28.63;;;17.08;;
17382;SDS011;8809;51.892;8.384;2022-12-10T07:39:15;26.92;;;16.15;;
17382;SDS011;8809;51.892;8.384;2022-12-10T07:41:43;32.05;;;19.20;;
17382;SDS011;8809;51.892;8.384;2022-12-10T07:44:11;26.70;;;16.40;;
17382;SDS011;8809;51.892;8.384;2022-12-10T07:46:40;24.58;;;15.77;;
17382;SDS011;8809;51.892;8.384;2022-12-10T07:49:06;25.75;;;16.15;;
17382;SDS011;8809;51.892;8.384;2022-12-10T07:51:33;26.38;;;17.35;;
17382;SDS011;8809;51.892;8.384;2022-12-10T07:54:01;27.60;;;16.38;;
17382;SDS011;8809;51.892;8.384;2022-12-10T07:56:28;24.65;;;15.48;;
17382;SDS011;8809;51.892;8.384;2022-12-10T07:58:55;37.13;;;20.67;;
17382;SDS011;8809;51.892;8.384;2022-12-10T08:01:22;27.95;;;17.10;;
17382;SDS011;8809;51.892;8.384;2022-12-10T08:03:52;28.38;;;17.13;;
17382;SDS011;8809;51.892;8.384;2022-12-10T08:06:23;25.30;;;16.15;;
17382;SDS011;8809;51.892;8.384;2022-12-10T08:08:51;29.40;;;17.00;;
17382;SDS011;8809;51.892;8.384;2022-12-10T08:11:19;30.45;;;17.50;;
17382;SDS011;8809;51.892;8.384;2022-12-10T08:13:47;26.90;;;16.50;;
17382;SDS011;8809;51.892;8.384;2022-12-10T08:16:14;27.55;;;17.15;;
17382;SDS011;8809;51.892;8.384;2022-12-10T08:18:43;26.92;;;16.30;;
17382;SDS011;8809;51.892;8.384;2022-12-10T08:21:13;27.50;;;16.40;;
17382;SDS011;8809;51.892;8.384;2022-12-10T08:23:41;27.35;;;16.13;;
17382;SDS011;8809;51.892;8.384;2022-12-10T08:26:09;24.63;;;15.80;;
17382;SDS011;8809;51.892;8.384;2022-12-10T08:28:37;29.23;;;17.55;;
17382;SDS011;8809;51.892;8.384;2022-12-10T08:31:06;27.35;;;17.35;;
17382;SDS011;8809;51.892;8.384;2022-12-10T08:33:34;28.48;;;16.92;;
17382;SDS011;8809;51.892;8.384;2022-12-10T08:36:02;26.55;;;16.35;;
17382;SDS011;8809;51.892;8.384;2022-12-10T08:38:33;25.08;;;15.32;;
17382;SDS011;8809;51.892;8.384;2022-12-10T08:41:05;26.90;;;16.23;;
17382;SDS011;8809;51.892;8.384;2022-12-10T08:43:33;25.23;;;16.13;;
17382;SDS011;8809;51.892;8.384;2022-12-10T08:46:00;29.15;;;16.80;;
17382;SDS011;8809;51.892;8.384;2022-12-10T08:48:27;29.10;;;17.27;;
17382;SDS011;8809;51.892;8.384;2022-12-10T08:50:54;28.25;;;17.10;;
17382;SDS011;8809;51.892;8.384;2022-12-10T08:53:21;30.05;;;18.05;;
17382;SDS011;8809;51.892;8.384;2022-12-10T08:55:50;28.65;;;17.95;;
17382;SDS011;8809;51.892;8.384;2022-12-10T08:58:18;26.02;;;16.35;;
17382;SDS011;8809;51.892;8.384;2022-12-10T09:00:45;24.38;;;15.27;;
17382;SDS011;8809;51.892;8.384;2022-12-10T09:03:13;25.38;;;14.90;;
17382;SDS011;8809;51.892;8.384;2022-12-10T09:05:40;26.15;;;15.95;;
17382;SDS011;8809;51.892;8.384;2022-12-10T09:08:07;25.55;;;14.77;;
17382;SDS011;8809;51.892;8.384;2022-12-10T09:10:35;25.17;;;15.70;;
17382;SDS011;8809;51.892;8.384;2022-12-10T09:13:04;25.40;;;15.32;;
17382;SDS011;8809;51.892;8.384;2022-12-10T09:15:31;28.77;;;16.25;;
17382;SDS011;8809;51.892;8.384;2022-12-10T09:17:58;23.27;;;15.00;;
17382;SDS011;8809;51.892;8.384;2022-12-10T09:20:25;24.45;;;15.27;;
17382;SDS011;8809;51.892;8.384;2022-12-10T09:22:52;24.90;;;14.75;;
17382;SDS011;8809;51.892;8.384;2022-12-10T09:25:19;23.25;;;15.07;;
17382;SDS011;8809;51.892;8.384;2022-12-10T09:27:46;24.02;;;14.65;;
17382;SDS011;8809;51.892;8.384;2022-12-10T09:30:18;25.42;;;15.10;;
17382;SDS011;8809;51.892;8.384;2022-12-10T09:32:45;21.15;;;13.38;;
17382;SDS011;8809;51.892;8.384;2022-12-10T09:35:12;22.63;;;13.23;;
17382;SDS011;8809;51.892;8.384;2022-12-10T09:37:39;23.77;;;14.18;;
17382;SDS011;8809;51.892;8.384;2022-12-10T09:40:09;23.50;;;13.98;;
17382;SDS011;8809;51.892;8.384;2022-12-10T09:42:43;25.52;;;16.42;;
17382;SDS011;8809;51.892;8.384;2022-12-10T09:45:22;30.83;;;17.13;;
17382;SDS011;8809;51.892;8.384;2022-12-10T09:47:57;24.33;;;14.98;;
17382;SDS011;8809;51.892;8.384;2022-12-10T09:50:30;29.67;;;17.02;;
17382;SDS011;8809;51.892;8.384;2022-12-10T09:53:02;25.63;;;16.98;;
17382;SDS011;8809;51.892;8.384;2022-12-10T09:55:32;27.35;;;17.05;;
17382;SDS011;8809;51.892;8.384;2022-12-10T09:58:02;33.00;;;20.00;;
17382;SDS011;8809;51.892;8.384;2022-12-10T10:00:34;29.35;;;17.50;;
17382;SDS011;8809;51.892;8.384;2022-12-10T10:03:03;27.35;;;15.80;;
17382;SDS011;8809;51.892;8.384;2022-12-10T10:05:33;28.40;;;16.05;;
17382;SDS011;8809;51.892;8.384;2022-12-10T10:08:03;24.42;;;14.15;;
17382;SDS011;8809;51.892;8.384;2022-12-10T10:10:34;25.30;;;15.50;;
17382;SDS011;8809;51.892;8.384;2022-12-10T10:13:10;27.10;;;16.25;;
17382;SDS011;8809;51.892;8.384;2022-12-10T10:15:44;26.42;;;16.30;;
17382;SDS011;8809;51.892;8.384;2022-12-10T10:18:13;28.90;;;17.08;;
17382;SDS011;8809;51.892;8.384;2022-12-10T10:20:48;35.45;;;20.55;;
17382;SDS011;8809;51.892;8.384;2022-12-10T10:23:16;27.83;;;16.75;;
17382;SDS011;8809;51.892;8.384;2022-12-10T10:25:43;26.25;;;17.13;;
17382;SDS011;8809;51.892;8.384;2022-12-10T10:28:11;28.27;;;18.13;;
17382;SDS011;8809;51.892;8.384;2022-12-10T10:30:50;35.03;;;20.52;;
17382;SDS011;8809;51.892;8.384;2022-12-10T10:33:19;29.15;;;18.02;;
17382;SDS011;8809;51.892;8.384;2022-12-10T10:35:46;33.72;;;20.58;;
17382;SDS011;8809;51.892;8.384;2022-12-10T10:38:16;31.60;;;19.60;;
17382;SDS011;8809;51.892;8.384;2022-12-10T10:40:49;27.25;;;16.88;;
17382;SDS011;8809;51.892;8.384;2022-12-10T10:43:20;26.30;;;16.38;;
17382;SDS011;8809;51.892;8.384;2022-12-10T10:45:52;24.70;;;15.57;;
17382;SDS011;8809;51.892;8.384;2022-12-10T10:48:21;23.65;;;14.77;;
17382;SDS011;8809;51.892;8.384;2022-12-10T10:50:50;29.17;;;17.90;;
17382;SDS011;8809;51.892;8.384;2022-12-10T10:53:29;27.15;;;16.40;;
17382;SDS011;8809;51.892;8.384;2022-12-10T10:58:55;27.00;;;15.73;;
17382;SDS011;8809;51.892;8.384;2022-12-10T11:01:26;28.20;;;16.55;;
17382;SDS011;8809;51.892;8.384;2022-12-10T11:04:10;30.80;;;19.48;;
17382;SDS011;8809;51.892;8.384;2022-12-10T11:06:39;29.92;;;18.63;;
17382;SDS011;8809;51.892;8.384;2022-12-10T11:09:06;26.63;;;17.23;;
17382;SDS011;8809;51.892;8.384;2022-12-10T11:11:34;25.60;;;16.45;;
17382;SDS011;8809;51.892;8.384;2022-12-10T11:14:12;28.17;;;17.65;;
17382;SDS011;8809;51.892;8.384;2022-12-10T11:16:42;25.83;;;16.42;;
17382;SDS011;8809;51.892;8.384;2022-12-10T11:19:16;24.50;;;15.70;;
17382;SDS011;8809;51.892;8.384;2022-12-10T11:21:46;23.48;;;15.30;;
17382;SDS011;8809;51.892;8.384;2022-12-10T11:24:15;21.17;;;14.75;;
17382;SDS011;8809;51.892;8.384;2022-12-10T11:26:51;22.85;;;14.70;;
17382;SDS011;8809;51.892;8.384;2022-12-10T11:29:33;23.35;;;15.35;;
17382;SDS011;8809;51.892;8.384;2022-12-10T11:32:18;25.20;;;16.75;;
17382;SDS011;8809;51.892;8.384;2022-12-10T11:35:07;25.45;;;15.55;;
17382;SDS011;8809;51.892;8.384;2022-12-10T11:37:39;23.27;;;14.73;;
17382;SDS011;8809;51.892;8.384;2022-12-10T11:40:22;22.77;;;15.15;;
17382;SDS011;8809;51.892;8.384;2022-12-10T11:43:00;24.00;;;15.02;;
17382;SDS011;8809;51.892;8.384;2022-12-10T11:45:41;22.63;;;15.88;;
17382;SDS011;8809;51.892;8.384;2022-12-10T11:48:21;21.52;;;14.57;;
17382;SDS011;8809;51.892;8.384;2022-12-10T11:50:59;21.70;;;13.35;;
17382;SDS011;8809;51.892;8.384;2022-12-10T11:53:40;18.90;;;12.52;;
17382;SDS011;8809;51.892;8.384;2022-12-10T11:56:19;24.67;;;15.07;;
17382;SDS011;8809;51.892;8.384;2022-12-10T11:58:54;25.92;;;16.27;;
17382;SDS011;8809;51.892;8.384;2022-12-10T12:01:34;21.55;;;14.45;;
17382;SDS011;8809;51.892;8.384;2022-12-10T12:04:19;20.65;;;13.55;;
17382;SDS011;8809;51.892;8.384;2022-12-10T12:07:01;20.30;;;13.70;;
17382;SDS011;8809;51.892;8.384;2022-12-10T12:09:41;19.65;;;12.27;;
17382;SDS011;8809;51.892;8.384;2022-12-10T12:12:20;17.65;;;12.05;;
17382;SDS011;8809;51.892;8.384;2022-12-10T12:14:58;18.23;;;11.20;;
17382;SDS011;8809;51.892;8.384;2022-12-10T12:17:30;15.38;;;10.05;;
17382;SDS011;8809;51.892;8.384;2022-12-10T12:20:03;17.45;;;11.77;;
17382;SDS011;8809;51.892;8.384;2022-12-10T12:22:42;16.77;;;10.77;;
17382;SDS011;8809;51.892;8.384;2022-12-10T12:25:15;14.93;;;9.70;;
17382;SDS011;8809;51.892;8.384;2022-12-10T12:27:49;18.23;;;12.63;;
17382;SDS011;8809;51.892;8.384;2022-12-10T12:30:20;18.65;;;12.70;;
17382;SDS011;8809;51.892;8.384;2022-12-10T12:32:50;19.58;;;12.80;;
17382;SDS011;8809;51.892;8.384;2022-12-10T12:35:28;19.58;;;13.43;;
17382;SDS011;8809;51.892;8.384;2022-12-10T12:38:06;20.23;;;13.30;;
17382;SDS011;8809;51.892;8.384;2022-12-10T12:40:49;18.15;;;11.52;;
17382;SDS011;8809;51.892;8.384;2022-12-10T12:43:20;17.67;;;11.20;;
17382;SDS011;8809;51.892;8.384;2022-12-10T12:45:52;19.70;;;11.80;;
17382;SDS011;8809;51.892;8.384;2022-12-10T12:48:23;21.48;;;14.10;;
17382;SDS011;8809;51.892;8.384;2022-12-10T12:50:57;14.93;;;10.25;;
17382;SDS011;8809;51.892;8.384;2022-12-10T12:53:27;18.05;;;11.07;;
17382;SDS011;8809;51.892;8.384;2022-12-10T12:55:56;16.27;;;11.70;;
17382;SDS011;8809;51.892;8.384;2022-12-10T12:58:31;19.38;;;12.98;;
17382;SDS011;8809;51.892;8.384;2022-12-10T13:01:06;18.92;;;13.05;;
17382;SDS011;8809;51.892;8.384;2022-12-10T13:03:42;18.40;;;12.02;;
17382;SDS011;8809;51.892;8.384;2022-12-10T13:06:16;15.95;;;11.50;;
17382;SDS011;8809;51.892;8.384;2022-12-10T13:08:47;14.95;;;10.43;;
17382;SDS011;8809;51.892;8.384;2022-12-10T13:11:19;18.40;;;12.23;;
17382;SDS011;8809;51.892;8.384;2022-12-10T13:14:13;17.75;;;11.48;;
17382;SDS011;8809;51.892;8.384;2022-12-10T13:19:49;16.17;;;10.40;;
17382;SDS011;8809;51.892;8.384;2022-12-10T13:25:21;14.60;;;9.75;;
17382;SDS011;8809;51.892;8.384;2022-12-10T13:28:16;18.83;;;12.32;;
17382;SDS011;8809;51.892;8.384;2022-12-10T13:34:06;18.50;;;12.63;;
17382;SDS011;8809;51.892;8.384;2022-12-10T13:37:05;17.13;;;11.75;;
17382;SDS011;8809;51.892;8.384;2022-12-10T13:39:48;17.33;;;11.38;;
17382;SDS011;8809;51.892;8.384;2022-12-10T13:45:29;19.70;;;12.35;;
17382;SDS011;8809;51.892;8.384;2022-12-10T13:48:18;20.80;;;13.20;;
17382;SDS011;8809;51.892;8.384;2022-12-10T13:50:54;16.55;;;12.23;;
17382;SDS011;8809;51.892;8.384;2022-12-10T13:53:47;20.23;;;13.20;;
17382;SDS011;8809;51.892;8.384;2022-12-10T13:56:26;19.58;;;12.82;;
17382;SDS011;8809;51.892;8.384;2022-12-10T13:58:59;18.48;;;13.02;;
17382;SDS011;8809;51.892;8.384;2022-12-10T14:01:40;24.52;;;15.75;;
17382;SDS011;8809;51.892;8.384;2022-12-10T14:04:16;22.60;;;13.82;;
17382;SDS011;8809;51.892;8.384;2022-12-10T14:07:02;20.10;;;13.95;;
17382;SDS011;8809;51.892;8.384;2022-12-10T14:09:30;21.88;;;15.13;;
17382;SDS011;8809;51.892;8.384;2022-12-10T14:12:02;19.35;;;13.93;;
17382;SDS011;8809;51.892;8.384;2022-12-10T14:14:33;22.92;;;14.40;;
17382;SDS011;8809;51.892;8.384;2022-12-10T14:17:03;21.45;;;14.55;;
17382;SDS011;8809;51.892;8.384;2022-12-10T14:19:31;22.63;;;15.73;;
17382;SDS011;8809;51.892;8.384;2022-12-10T14:22:03;24.75;;;15.40;;
17382;SDS011;8809;51.892;8.384;2022-12-10T14:24:33;23.85;;;16.50;;
17382;SDS011;8809;51.892;8.384;2022-12-10T14:27:05;23.02;;;15.18;;
17382;SDS011;8809;51.892;8.384;2022-12-10T14:29:42;20.58;;;13.45;;
17382;SDS011;8809;51.892;8.384;2022-12-10T14:32:11;22.70;;;14.00;;
17382;SDS011;8809;51.892;8.384;2022-12-10T14:34:40;21.85;;;15.32;;
17382;SDS011;8809;51.892;8.384;2022-12-10T14:37:08;21.95;;;13.77;;
17382;SDS011;8809;51.892;8.384;2022-12-10T14:39:40;21.30;;;14.98;;
17382;SDS011;8809;51.892;8.384;2022-12-10T14:42:12;17.65;;;12.57;;
17382;SDS011;8809;51.892;8.384;2022-12-10T14:44:42;19.48;;;13.35;;
17382;SDS011;8809;51.892;8.384;2022-12-10T14:47:13;22.25;;;15.43;;
17382;SDS011;8809;51.892;8.384;2022-12-10T14:49:42;21.90;;;14.05;;
17382;SDS011;8809;51.892;8.384;2022-12-10T14:52:14;21.67;;;14.27;;
17382;SDS011;8809;51.892;8.384;2022-12-10T14:54:43;24.55;;;15.52;;
17382;SDS011;8809;51.892;8.384;2022-12-10T14:57:15;25.13;;;15.73;;
17382;SDS011;8809;51.892;8.384;2022-12-10T14:59:47;24.17;;;15.90;;
17382;SDS011;8809;51.892;8.384;2022-12-10T15:02:20;22.60;;;15.20;;
17382;SDS011;8809;51.892;8.384;2022-12-10T15:04:52;22.90;;;15.13;;
17382;SDS011;8809;51.892;8.384;2022-12-10T15:07:22;23.75;;;15.20;;
17382;SDS011;8809;51.892;8.384;2022-12-10T15:09:50;20.48;;;13.13;;
17382;SDS011;8809;51.892;8.384;2022-12-10T15:12:31;20.38;;;14.13;;